sensor_id;sensor_type;location;lat;lon;timestamp;pressure;altitude;pressure_sealevel;temperature;humidity
55351;BME280;62194;49.480;10.986;2023-03-03T00:00:05;98395.22;;;1.12;69.17
55351;BME280;62194;49.480;10.986;2023-03-03T00:00:11;98407.78;;;1.22;69.43
55351;BME280;62194;49.480;10.986;2023-03-03T00:00:17;98421.13;;;1.32;69.49
55351;BME280;62194;49.480;10.986;2023-03-03T00:00:22;98425.97;;;1.30;69.72
55351;BME280;62194;49.480;10.986;2023-03-03T00:00:27;98434.88;;;1.31;69.71
55351;BME280;62194;49.480;10.986;2023-03-03T00:00:33;98420.38;;;1.27;69.85
55351;BME280;62194;49.480;10.986;2023-03-03T00:00:38;98423.34;;;1.25;69.50
55351;BME280;62194;49.480;10.986;2023-03-03T00:00:44;98426.53;;;1.27;70.11
55351;BME280;62194;49.480;10.986;2023-03-03T00:00:49;98424.13;;;1.26;69.63
55351;BME280;62194;49.480;10.986;2023-03-03T00:00:54;98413.72;;;1.14;69.48
55351;BME280;62194;49.480;10.986;2023-03-03T00:01:00;98415.06;;;1.16;69.87
55351;BME280;62194;49.480;10.986;2023-03-03T00:01:06;98407.31;;;1.15;69.81
55351;BME280;62194;49.480;10.986;2023-03-03T00:01:11;98423.91;;;1.22;70.05
55351;BME280;62194;49.480;10.986;2023-03-03T00:01:17;98426.59;;;1.17;70.05
55351;BME280;62194;49.480;10.986;2023-03-03T00:01:23;98413.47;;;1.15;70.34
55351;BME280;62194;49.480;10.986;2023-03-03T00:01:31;98420.97;;;1.19;70.20
55351;BME280;62194;49.480;10.986;2023-03-03T00:01:37;98418.53;;;1.17;70.01
55351;BME280;62194;49.480;10.986;2023-03-03T00:01:42;98403.06;;;1.04;70.10
55351;BME280;62194;49.480;10.986;2023-03-03T00:01:47;98409.75;;;1.11;70.19
55351;BME280;62194;49.480;10.986;2023-03-03T00:01:52;98410.25;;;1.13;69.67
55351;BME280;62194;49.480;10.986;2023-03-03T00:01:58;98412.91;;;1.19;70.23
55351;BME280;62194;49.480;10.986;2023-03-03T00:02:03;98427.38;;;1.23;69.58
55351;BME280;62194;49.480;10.986;2023-03-03T00:02:08;98409.75;;;1.11;69.67
55351;BME280;62194;49.480;10.986;2023-03-03T00:02:14;98428.47;;;1.22;69.80
55351;BME280;62194;49.480;10.986;2023-03-03T00:02:20;98420.69;;;1.20;69.75
55351;BME280;62194;49.480;10.986;2023-03-03T00:02:25;98423.66;;;1.19;70.30
55351;BME280;62194;49.480;10.986;2023-03-03T00:02:30;98425.25;;;1.20;70.30
55351;BME280;62194;49.480;10.986;2023-03-03T00:02:36;98424.44;;;1.19;70.07
55351;BME280;62194;49.480;10.986;2023-03-03T00:02:41;98421.78;;;1.19;70.17
55351;BME280;62194;49.480;10.986;2023-03-03T00:02:46;98424.69;;;1.23;69.78
55351;BME280;62194;49.480;10.986;2023-03-03T00:02:52;98430.31;;;1.26;69.70
55351;BME280;62194;49.480;10.986;2023-03-03T00:03:00;98425.75;;;1.27;69.50
55351;BME280;62194;49.480;10.986;2023-03-03T00:03:10;98409.66;;;1.22;69.55
55351;BME280;62194;49.480;10.986;2023-03-03T00:03:21;98408.59;;;1.17;69.50
55351;BME280;62194;49.480;10.986;2023-03-03T00:03:26;98391.81;;;1.02;69.39
55351;BME280;62194;49.480;10.986;2023-03-03T00:03:32;98430.06;;;1.23;69.94
55351;BME280;62194;49.480;10.986;2023-03-03T00:03:38;98412.94;;;1.13;70.05
55351;BME280;62194;49.480;10.986;2023-03-03T00:03:44;98422.03;;;1.17;69.84
55351;BME280;62194;49.480;10.986;2023-03-03T00:03:49;98399.03;;;1.01;70.11
55351;BME280;62194;49.480;10.986;2023-03-03T00:03:55;98418.84;;;1.15;70.09
55351;BME280;62194;49.480;10.986;2023-03-03T00:04:02;98428.22;;;1.18;69.89
55351;BME280;62194;49.480;10.986;2023-03-03T00:04:07;98392.63;;;0.97;69.87
55351;BME280;62194;49.480;10.986;2023-03-03T00:04:13;98417.81;;;1.11;69.99
55351;BME280;62194;49.480;10.986;2023-03-03T00:04:18;98384.38;;;0.88;70.05
55351;BME280;62194;49.480;10.986;2023-03-03T00:04:24;98405.75;;;1.04;70.39
55351;BME280;62194;49.480;10.986;2023-03-03T00:04:29;98386.47;;;0.91;70.10
55351;BME280;62194;49.480;10.986;2023-03-03T00:04:34;98408.19;;;1.00;69.89
55351;BME280;62194;49.480;10.986;2023-03-03T00:04:39;98405.50;;;1.00;70.37
55351;BME280;62194;49.480;10.986;2023-03-03T00:04:45;98422.09;;;1.12;70.08
55351;BME280;62194;49.480;10.986;2023-03-03T00:04:50;98427.44;;;1.12;70.20
55351;BME280;62194;49.480;10.986;2023-03-03T00:04:56;98431.22;;;1.11;70.21
55351;BME280;62194;49.480;10.986;2023-03-03T00:05:01;98421.31;;;1.07;70.17
55351;BME280;62194;49.480;10.986;2023-03-03T00:05:07;98402.31;;;0.98;70.41
55351;BME280;62194;49.480;10.986;2023-03-03T00:05:13;98428.81;;;1.10;70.73
55351;BME280;62194;49.480;10.986;2023-03-03T00:05:19;98415.97;;;1.02;70.35
55351;BME280;62194;49.480;10.986;2023-03-03T00:05:24;98413.00;;;1.03;70.72
55351;BME280;62194;49.480;10.986;2023-03-03T00:05:33;98410.56;;;1.07;70.46
55351;BME280;62194;49.480;10.986;2023-03-03T00:05:38;98426.91;;;1.10;70.79
55351;BME280;62194;49.480;10.986;2023-03-03T00:05:43;98423.19;;;1.06;70.66
55351;BME280;62194;49.480;10.986;2023-03-03T00:05:49;98405.00;;;0.98;70.60
55351;BME280;62194;49.480;10.986;2023-03-03T00:05:55;98419.94;;;1.09;70.49
55351;BME280;62194;49.480;10.986;2023-03-03T00:06:02;98421.84;;;1.09;70.30
55351;BME280;62194;49.480;10.986;2023-03-03T00:06:10;98424.53;;;1.09;70.62
55351;BME280;62194;49.480;10.986;2023-03-03T00:06:16;98411.66;;;1.06;70.21
55351;BME280;62194;49.480;10.986;2023-03-03T00:06:21;98423.13;;;1.16;70.30
55351;BME280;62194;49.480;10.986;2023-03-03T00:06:28;98423.13;;;1.16;70.23
55351;BME280;62194;49.480;10.986;2023-03-03T00:06:34;98418.78;;;1.21;69.95
55351;BME280;62194;49.480;10.986;2023-03-03T00:06:40;98408.66;;;1.12;69.73
55351;BME280;62194;49.480;10.986;2023-03-03T00:06:45;98430.59;;;1.25;69.85
55351;BME280;62194;49.480;10.986;2023-03-03T00:06:50;98407.84;;;1.12;69.87
55351;BME280;62194;49.480;10.986;2023-03-03T00:06:55;98380.28;;;0.96;69.42
55351;BME280;62194;49.480;10.986;2023-03-03T00:07:01;98423.59;;;1.24;69.84
55351;BME280;62194;49.480;10.986;2023-03-03T00:07:06;98419.31;;;1.23;69.77
55351;BME280;62194;49.480;10.986;2023-03-03T00:07:11;98422.31;;;1.21;69.53
55351;BME280;62194;49.480;10.986;2023-03-03T00:07:19;98413.47;;;1.15;69.75
55351;BME280;62194;49.480;10.986;2023-03-03T00:07:27;98408.91;;;1.11;69.88
55351;BME280;62194;49.480;10.986;2023-03-03T00:07:32;98416.72;;;1.12;69.69
55351;BME280;62194;49.480;10.986;2023-03-03T00:07:37;98395.56;;;1.01;69.91
55351;BME280;62194;49.480;10.986;2023-03-03T00:07:44;98410.81;;;1.10;69.74
55351;BME280;62194;49.480;10.986;2023-03-03T00:07:49;98408.41;;;1.09;70.05
55351;BME280;62194;49.480;10.986;2023-03-03T00:07:54;98413.97;;;1.17;69.82
55351;BME280;62194;49.480;10.986;2023-03-03T00:08:00;98413.47;;;1.15;69.62
55351;BME280;62194;49.480;10.986;2023-03-03T00:08:06;98417.50;;;1.18;69.38
55351;BME280;62194;49.480;10.986;2023-03-03T00:08:11;98408.97;;;1.06;69.60
55351;BME280;62194;49.480;10.986;2023-03-03T00:08:18;98425.00;;;1.16;69.62
55351;BME280;62194;49.480;10.986;2023-03-03T00:08:24;98418.84;;;1.15;69.82
55351;BME280;62194;49.480;10.986;2023-03-03T00:08:30;98403.34;;;1.02;69.37
55351;BME280;62194;49.480;10.986;2023-03-03T00:08:36;98420.50;;;1.11;69.74
55351;BME280;62194;49.480;10.986;2023-03-03T00:08:42;98372.88;;;0.83;69.92
55351;BME280;62194;49.480;10.986;2023-03-03T00:08:47;98410.06;;;1.05;69.81
55351;BME280;62194;49.480;10.986;2023-03-03T00:08:53;98399.63;;;0.98;70.46
55351;BME280;62194;49.480;10.986;2023-03-03T00:08:58;98398.00;;;0.97;70.13
55351;BME280;62194;49.480;10.986;2023-03-03T00:09:03;98406.03;;;1.02;69.97
55351;BME280;62194;49.480;10.986;2023-03-03T00:09:08;98426.13;;;1.10;69.79
55351;BME280;62194;49.480;10.986;2023-03-03T00:09:14;98416.22;;;1.05;70.03
55351;BME280;62194;49.480;10.986;2023-03-03T00:09:19;98402.56;;;0.97;70.07
55351;BME280;62194;49.480;10.986;2023-03-03T00:09:24;98405.00;;;0.98;69.60
55351;BME280;62194;49.480;10.986;2023-03-03T00:09:29;98388.69;;;0.84;69.95
55351;BME280;62194;49.480;10.986;2023-03-03T00:09:35;98379.31;;;0.82;69.93
55351;BME280;62194;49.480;10.986;2023-03-03T00:09:40;98397.22;;;0.91;69.91
55351;BME280;62194;49.480;10.986;2023-03-03T00:09:46;98415.94;;;1.07;69.92
55351;BME280;62194;49.480;10.986;2023-03-03T00:09:51;98395.38;;;0.92;70.07
55351;BME280;62194;49.480;10.986;2023-03-03T00:09:56;98383.06;;;0.86;69.79
55351;BME280;62194;49.480;10.986;2023-03-03T00:10:02;98418.63;;;1.07;69.84
55351;BME280;62194;49.480;10.986;2023-03-03T00:10:08;98423.19;;;1.06;69.83
55351;BME280;62194;49.480;10.986;2023-03-03T00:10:14;98394.03;;;0.84;69.99
55351;BME280;62194;49.480;10.986;2023-03-03T00:10:19;98406.06;;;0.97;69.95
55351;BME280;62194;49.480;10.986;2023-03-03T00:10:24;98391.09;;;0.86;70.27
55351;BME280;62194;49.480;10.986;2023-03-03T00:10:30;98421.84;;;1.04;70.04
55351;BME280;62194;49.480;10.986;2023-03-03T00:10:36;98417.56;;;1.03;70.05
55351;BME280;62194;49.480;10.986;2023-03-03T00:10:41;98404.72;;;0.94;69.84
55351;BME280;62194;49.480;10.986;2023-03-03T00:10:47;98408.22;;;0.95;69.99
55351;BME280;62194;49.480;10.986;2023-03-03T00:10:52;98421.34;;;1.02;70.05
55351;BME280;62194;49.480;10.986;2023-03-03T00:10:59;98422.41;;;1.01;70.02
55351;BME280;62194;49.480;10.986;2023-03-03T00:11:07;98422.41;;;1.01;70.38
55351;BME280;62194;49.480;10.986;2023-03-03T00:11:13;98411.19;;;0.93;70.05
55351;BME280;62194;49.480;10.986;2023-03-03T00:11:18;98383.63;;;0.78;69.93
55351;BME280;62194;49.480;10.986;2023-03-03T00:11:24;98417.88;;;0.96;69.93
55351;BME280;62194;49.480;10.986;2023-03-03T00:11:29;98420.84;;;0.94;70.35
55351;BME280;62194;49.480;10.986;2023-03-03T00:11:34;98410.16;;;0.84;70.03
55351;BME280;62194;49.480;10.986;2023-03-03T00:11:40;98394.59;;;0.81;70.09
55351;BME280;62194;49.480;10.986;2023-03-03T00:11:46;98404.78;;;0.84;70.09
55351;BME280;62194;49.480;10.986;2023-03-03T00:11:55;98416.78;;;0.97;70.29
55351;BME280;62194;49.480;10.986;2023-03-03T00:12:45;98395.44;;;0.77;70.33
55351;BME280;62194;49.480;10.986;2023-03-03T00:12:51;98394.91;;;0.75;70.49
55351;BME280;62194;49.480;10.986;2023-03-03T00:12:56;98395.72;;;0.75;70.65
55351;BME280;62194;49.480;10.986;2023-03-03T00:13:01;98354.28;;;0.47;70.37
55351;BME280;62194;49.480;10.986;2023-03-03T00:13:27;98361.47;;;0.52;70.66
55351;BME280;62194;49.480;10.986;2023-03-03T00:13:49;98416.31;;;0.85;70.75
55351;BME280;62194;49.480;10.986;2023-03-03T00:13:55;98395.72;;;0.75;70.59
55351;BME280;62194;49.480;10.986;2023-03-03T00:14:01;98403.19;;;0.78;70.49
55351;BME280;62194;49.480;10.986;2023-03-03T00:14:17;98401.91;;;0.76;70.99
55351;BME280;62194;49.480;10.986;2023-03-03T00:14:29;98429.72;;;0.90;70.63
55351;BME280;62194;49.480;10.986;2023-03-03T00:14:35;98400.28;;;0.75;70.63
55351;BME280;62194;49.480;10.986;2023-03-03T00:14:40;98420.59;;;0.91;70.76
55351;BME280;62194;49.480;10.986;2023-03-03T00:14:45;98374.03;;;0.61;70.36
55351;BME280;62194;49.480;10.986;2023-03-03T00:14:51;98360.19;;;0.49;70.24
55351;BME280;62194;49.480;10.986;2023-03-03T00:14:57;98405.88;;;0.78;70.28
55351;BME280;62194;49.480;10.986;2023-03-03T00:15:14;98398.69;;;0.74;70.53
55351;BME280;62194;49.480;10.986;2023-03-03T00:15:23;98427.03;;;0.90;70.47
55351;BME280;62194;49.480;10.986;2023-03-03T00:15:30;98423.81;;;0.88;70.47
55351;BME280;62194;49.480;10.986;2023-03-03T00:15:35;98399.78;;;0.67;70.50
55351;BME280;62194;49.480;10.986;2023-03-03T00:15:41;98404.59;;;0.76;70.38
55351;BME280;62194;49.480;10.986;2023-03-03T00:15:47;98382.63;;;0.63;70.60
55351;BME280;62194;49.480;10.986;2023-03-03T00:15:55;98361.78;;;0.50;70.38
55351;BME280;62194;49.480;10.986;2023-03-03T00:16:16;98432.41;;;0.90;70.49
55351;BME280;62194;49.480;10.986;2023-03-03T00:16:39;98393.84;;;0.76;70.13
55351;BME280;62194;49.480;10.986;2023-03-03T00:16:44;98410.16;;;0.84;70.24
55351;BME280;62194;49.480;10.986;2023-03-03T00:16:51;98398.13;;;0.82;70.09
55351;BME280;62194;49.480;10.986;2023-03-03T00:16:57;98426.75;;;0.97;70.18
55351;BME280;62194;49.480;10.986;2023-03-03T00:17:14;98420.31;;;0.92;70.33
55351;BME280;62194;49.480;10.986;2023-03-03T00:17:28;98387.41;;;0.72;70.52
55351;BME280;62194;49.480;10.986;2023-03-03T00:17:44;98401.84;;;0.81;70.45
55351;BME280;62194;49.480;10.986;2023-03-03T00:19:29;98391.16;;;0.76;69.93
55351;BME280;62194;49.480;10.986;2023-03-03T00:19:41;98425.16;;;0.96;70.19
55351;BME280;62194;49.480;10.986;2023-03-03T00:19:52;98426.72;;;1.02;69.82
55351;BME280;62194;49.480;10.986;2023-03-03T00:19:57;98424.84;;;1.02;70.10
55351;BME280;62194;49.480;10.986;2023-03-03T00:20:38;98407.97;;;0.91;69.71
55351;BME280;62194;49.480;10.986;2023-03-03T00:20:48;98407.72;;;0.88;69.66
55351;BME280;62194;49.480;10.986;2023-03-03T00:20:57;98403.69;;;0.90;69.93
55351;BME280;62194;49.480;10.986;2023-03-03T00:21:20;98421.59;;;1.05;69.64
55351;BME280;62194;49.480;10.986;2023-03-03T00:23:13;98420.56;;;0.96;69.86
55351;BME280;62194;49.480;10.986;2023-03-03T00:23:37;98426.19;;;1.00;69.82
55351;BME280;62194;49.480;10.986;2023-03-03T00:23:44;98405.59;;;0.85;70.07
55351;BME280;62194;49.480;10.986;2023-03-03T00:24:36;98418.66;;;1.02;69.64
55351;BME280;62194;49.480;10.986;2023-03-03T00:26:36;98402.41;;;0.83;69.66
55351;BME280;62194;49.480;10.986;2023-03-03T00:26:50;98420.59;;;0.91;70.40
55351;BME280;62194;49.480;10.986;2023-03-03T00:27:00;98358.28;;;0.50;70.10
55351;BME280;62194;49.480;10.986;2023-03-03T00:27:35;98422.75;;;0.89;69.95
55351;BME280;62194;49.480;10.986;2023-03-03T00:27:40;98417.41;;;0.84;70.08
55351;BME280;62194;49.480;10.986;2023-03-03T00:27:46;98410.16;;;0.84;70.25
55351;BME280;62194;49.480;10.986;2023-03-03T00:27:51;98422.75;;;0.89;70.15
55351;BME280;62194;49.480;10.986;2023-03-03T00:28:13;98362.28;;;0.52;70.22
55351;BME280;62194;49.480;10.986;2023-03-03T00:28:43;98428.41;;;0.87;70.27
55351;BME280;62194;49.480;10.986;2023-03-03T00:28:50;98408.63;;;0.73;70.00
55351;BME280;62194;49.480;10.986;2023-03-03T00:28:56;98404.34;;;0.72;70.21
55351;BME280;62194;49.480;10.986;2023-03-03T00:29:33;98401.13;;;0.70;70.46
55351;BME280;62194;49.480;10.986;2023-03-03T00:29:45;98426.25;;;0.84;70.45
55351;BME280;62194;49.480;10.986;2023-03-03T00:29:55;98401.13;;;0.65;70.57
55351;BME280;62194;49.480;10.986;2023-03-03T00:30:00;98388.00;;;0.58;70.67
55351;BME280;62194;49.480;10.986;2023-03-03T00:30:25;98403.25;;;0.68;70.41
55351;BME280;62194;49.480;10.986;2023-03-03T00:30:30;98400.09;;;0.61;70.51
55351;BME280;62194;49.480;10.986;2023-03-03T00:30:36;98423.56;;;0.84;70.38
55351;BME280;62194;49.480;10.986;2023-03-03T00:30:41;98359.16;;;0.40;70.67
55351;BME280;62194;49.480;10.986;2023-03-03T00:30:47;98363.13;;;0.42;70.54
55351;BME280;62194;49.480;10.986;2023-03-03T00:30:55;98405.44;;;0.66;70.54
55351;BME280;62194;49.480;10.986;2023-03-03T00:31:14;98424.13;;;0.81;71.05
55351;BME280;62194;49.480;10.986;2023-03-03T00:31:33;98424.13;;;0.81;70.53
55351;BME280;62194;49.480;10.986;2023-03-03T00:31:39;98371.16;;;0.47;70.66
55351;BME280;62194;49.480;10.986;2023-03-03T00:31:44;98410.81;;;0.66;70.88
55351;BME280;62194;49.480;10.986;2023-03-03T00:31:49;98387.50;;;0.56;70.62
55351;BME280;62194;49.480;10.986;2023-03-03T00:32:29;98430.28;;;0.87;70.42
55351;BME280;62194;49.480;10.986;2023-03-03T00:32:43;98432.41;;;0.95;70.34
55351;BME280;62194;49.480;10.986;2023-03-03T00:32:54;98437.78;;;0.95;69.89
55351;BME280;62194;49.480;10.986;2023-03-03T00:33:00;98387.19;;;0.63;69.71
55351;BME280;62194;49.480;10.986;2023-03-03T00:33:21;98425.16;;;0.90;70.20
55351;BME280;62194;49.480;10.986;2023-03-03T00:33:48;98370.59;;;0.56;70.05
55351;BME280;62194;49.480;10.986;2023-03-03T00:33:56;98432.94;;;0.92;69.76
55351;BME280;62194;49.480;10.986;2023-03-03T00:34:26;98399.53;;;0.69;69.96
55351;BME280;62194;49.480;10.986;2023-03-03T00:34:32;98402.16;;;0.74;70.25
55351;BME280;62194;49.480;10.986;2023-03-03T00:34:38;98405.38;;;0.76;70.15
55351;BME280;62194;49.480;10.986;2023-03-03T00:34:44;98359.09;;;0.45;70.17
55351;BME280;62194;49.480;10.986;2023-03-03T00:34:51;98359.41;;;0.43;70.27
55351;BME280;62194;49.480;10.986;2023-03-03T00:35:07;98366.88;;;0.46;70.02
55351;BME280;62194;49.480;10.986;2023-03-03T00:35:32;98436.97;;;0.89;69.96
55351;BME280;62194;49.480;10.986;2023-03-03T00:35:41;98410.72;;;0.81;70.17
55351;BME280;62194;49.480;10.986;2023-03-03T00:35:47;98388.50;;;0.70;70.00
55351;BME280;62194;49.480;10.986;2023-03-03T00:35:54;98375.69;;;0.57;69.73
55351;BME280;62194;49.480;10.986;2023-03-03T00:36:26;98436.38;;;1.03;69.86
55351;BME280;62194;49.480;10.986;2023-03-03T00:36:36;98436.63;;;1.06;69.70
55351;BME280;62194;49.480;10.986;2023-03-03T00:36:42;98430.19;;;1.02;69.37
55351;BME280;62194;49.480;10.986;2023-03-03T00:36:55;98412.81;;;0.89;69.62
55351;BME280;62194;49.480;10.986;2023-03-03T00:37:01;98408.00;;;0.86;69.32
55351;BME280;62194;49.480;10.986;2023-03-03T00:37:27;98436.38;;;1.03;69.71
55351;BME280;62194;49.480;10.986;2023-03-03T00:37:34;98405.03;;;0.88;69.87
55351;BME280;62194;49.480;10.986;2023-03-03T00:37:40;98409.34;;;0.84;69.53
55351;BME280;62194;49.480;10.986;2023-03-03T00:37:45;98409.09;;;0.80;69.84
55351;BME280;62194;49.480;10.986;2023-03-03T00:37:54;98383.69;;;0.67;70.15
55351;BME280;62194;49.480;10.986;2023-03-03T00:38:10;98435.63;;;0.92;69.97
55351;BME280;62194;49.480;10.986;2023-03-03T00:38:16;98433.47;;;0.94;69.99
55351;BME280;62194;49.480;10.986;2023-03-03T00:38:22;98413.63;;;0.85;69.86
55351;BME280;62194;49.480;10.986;2023-03-03T00:38:28;98399.22;;;0.70;69.82
55351;BME280;62194;49.480;10.986;2023-03-03T00:38:34;98427.59;;;0.87;70.21
55351;BME280;62194;49.480;10.986;2023-03-03T00:38:42;98435.63;;;0.92;70.42
55351;BME280;62194;49.480;10.986;2023-03-03T00:38:49;98428.94;;;0.89;70.33
55351;BME280;62194;49.480;10.986;2023-03-03T00:39:36;98408.31;;;0.75;70.39
55351;BME280;62194;49.480;10.986;2023-03-03T00:39:41;98382.38;;;0.60;70.37
55351;BME280;62194;49.480;10.986;2023-03-03T00:39:47;98432.66;;;0.93;70.22
55351;BME280;62194;49.480;10.986;2023-03-03T00:39:53;98431.84;;;0.98;70.20
55351;BME280;62194;49.480;10.986;2023-03-03T00:40:18;98436.13;;;0.99;70.13
55351;BME280;62194;49.480;10.986;2023-03-03T00:40:36;98429.72;;;0.95;69.76
55351;BME280;62194;49.480;10.986;2023-03-03T00:40:42;98438.03;;;0.93;70.10
55351;BME280;62194;49.480;10.986;2023-03-03T00:40:48;98430.78;;;0.94;69.99
55351;BME280;62194;49.480;10.986;2023-03-03T00:40:53;98430.28;;;0.92;70.24
55351;BME280;62194;49.480;10.986;2023-03-03T00:40:58;98422.78;;;0.84;70.14
55351;BME280;62194;49.480;10.986;2023-03-03T00:41:15;98431.63;;;0.89;70.09
55351;BME280;62194;49.480;10.986;2023-03-03T00:41:23;98413.44;;;0.76;70.23
55351;BME280;62194;49.480;10.986;2023-03-03T00:41:29;98427.59;;;0.87;70.25
55351;BME280;62194;49.480;10.986;2023-03-03T00:41:35;98432.97;;;0.87;70.30
55351;BME280;62194;49.480;10.986;2023-03-03T00:41:42;98359.66;;;0.42;70.43
55351;BME280;62194;49.480;10.986;2023-03-03T00:41:47;98425.47;;;0.84;70.31
55351;BME280;62194;49.480;10.986;2023-03-03T00:41:53;98403.56;;;0.66;70.31
55351;BME280;62194;49.480;10.986;2023-03-03T00:41:59;98430.03;;;0.83;70.37
55351;BME280;62194;49.480;10.986;2023-03-03T00:42:11;98432.47;;;0.80;70.51
55351;BME280;62194;49.480;10.986;2023-03-03T00:42:18;98436.50;;;0.82;70.70
55351;BME280;62194;49.480;10.986;2023-03-03T00:42:26;98413.19;;;0.67;70.55
55351;BME280;62194;49.480;10.986;2023-03-03T00:42:32;98404.63;;;0.65;70.53
55351;BME280;62194;49.480;10.986;2023-03-03T00:43:24;98360.50;;;0.32;70.11
55351;BME280;62194;49.480;10.986;2023-03-03T00:43:34;98426.31;;;0.74;70.21
55351;BME280;62194;49.480;10.986;2023-03-03T00:43:40;98393.44;;;0.48;70.37
55351;BME280;62194;49.480;10.986;2023-03-03T00:43:46;98433.03;;;0.77;70.57
55351;BME280;62194;49.480;10.986;2023-03-03T00:43:52;98435.69;;;0.77;70.36
55351;BME280;62194;49.480;10.986;2023-03-03T00:43:58;98384.03;;;0.45;70.43
55351;BME280;62194;49.480;10.986;2023-03-03T00:44:40;98387.00;;;0.49;70.48
55351;BME280;62194;49.480;10.986;2023-03-03T00:44:56;98431.19;;;0.72;70.72
55351;BME280;62194;49.480;10.986;2023-03-03T00:45:15;98410.31;;;0.54;70.78
55351;BME280;62194;49.480;10.986;2023-03-03T00:45:27;98437.34;;;0.73;70.74
55351;BME280;62194;49.480;10.986;2023-03-03T00:45:48;98420.75;;;0.65;70.54
55351;BME280;62194;49.480;10.986;2023-03-03T00:45:55;98432.22;;;0.71;71.10
55351;BME280;62194;49.480;10.986;2023-03-03T00:46:01;98422.09;;;0.63;70.60
55351;BME280;62194;49.480;10.986;2023-03-03T00:46:07;98429.28;;;0.73;70.86
55351;BME280;62194;49.480;10.986;2023-03-03T00:46:22;98438.69;;;0.70;70.69
55351;BME280;62194;49.480;10.986;2023-03-03T00:46:29;98431.44;;;0.70;71.00
55351;BME280;62194;49.480;10.986;2023-03-03T00:46:35;98434.91;;;0.71;70.87
55351;BME280;62194;49.480;10.986;2023-03-03T00:46:41;98436.00;;;0.70;70.73
55351;BME280;62194;49.480;10.986;2023-03-03T00:46:47;98370.19;;;0.28;71.04
55351;BME280;62194;49.480;10.986;2023-03-03T00:46:52;98376.88;;;0.31;70.94
55351;BME280;62194;49.480;10.986;2023-03-03T00:47:10;98432.53;;;0.69;70.99
55351;BME280;62194;49.480;10.986;2023-03-03T00:47:22;98436.81;;;0.70;71.00
55351;BME280;62194;49.480;10.986;2023-03-03T00:47:36;98433.84;;;0.72;70.66
55351;BME280;62194;49.480;10.986;2023-03-03T00:47:42;98422.88;;;0.63;70.91
55351;BME280;62194;49.480;10.986;2023-03-03T00:47:47;98414.84;;;0.63;71.07
55351;BME280;62194;49.480;10.986;2023-03-03T00:47:53;98406.03;;;0.53;70.82
55351;BME280;62194;49.480;10.986;2023-03-03T00:48:42;98423.38;;;0.70;70.80
55351;BME280;62194;49.480;10.986;2023-03-03T00:48:49;98370.94;;;0.39;70.92
55351;BME280;62194;49.480;10.986;2023-03-03T00:48:55;98433.03;;;0.77;71.01
55351;BME280;62194;49.480;10.986;2023-03-03T00:49:00;98435.16;;;0.75;71.20
55351;BME280;62194;49.480;10.986;2023-03-03T00:49:07;98433.84;;;0.72;70.76
55351;BME280;62194;49.480;10.986;2023-03-03T00:49:18;98409.72;;;0.62;70.80
55351;BME280;62194;49.480;10.986;2023-03-03T00:49:27;98379.22;;;0.42;70.68
55351;BME280;62194;49.480;10.986;2023-03-03T00:49:32;98421.78;;;0.64;70.64
55351;BME280;62194;49.480;10.986;2023-03-03T00:49:38;98428.50;;;0.72;70.65
55351;BME280;62194;49.480;10.986;2023-03-03T00:49:43;98423.16;;;0.62;70.94
55351;BME280;62194;49.480;10.986;2023-03-03T00:49:49;98373.09;;;0.37;70.77
55351;BME280;62194;49.480;10.986;2023-03-03T00:50:14;98433.56;;;0.74;70.70
55351;BME280;62194;49.480;10.986;2023-03-03T00:50:32;98437.59;;;0.71;70.99
55351;BME280;62194;49.480;10.986;2023-03-03T00:50:40;98429.31;;;0.67;71.42
55351;BME280;62194;49.480;10.986;2023-03-03T00:50:48;98395.31;;;0.42;71.68
55351;BME280;62194;49.480;10.986;2023-03-03T00:50:59;98417.28;;;0.55;71.31
55351;BME280;62194;49.480;10.986;2023-03-03T00:51:28;98428.50;;;0.67;71.39
55351;BME280;62194;49.480;10.986;2023-03-03T00:51:34;98412.47;;;0.52;71.56
55351;BME280;62194;49.480;10.986;2023-03-03T00:51:42;98425.88;;;0.57;71.43
55351;BME280;62194;49.480;10.986;2023-03-03T00:51:48;98439.25;;;0.67;71.84
55351;BME280;62194;49.480;10.986;2023-03-03T00:51:53;98441.63;;;0.68;71.71
55351;BME280;62194;49.480;10.986;2023-03-03T00:51:59;98399.38;;;0.40;71.98
55351;BME280;62194;49.480;10.986;2023-03-03T00:52:16;98414.34;;;0.51;71.58
55351;BME280;62194;49.480;10.986;2023-03-03T00:52:26;98422.94;;;0.53;71.48
55351;BME280;62194;49.480;10.986;2023-03-03T00:52:35;98415.94;;;0.52;71.46
55351;BME280;62194;49.480;10.986;2023-03-03T00:52:50;98413.78;;;0.54;71.43
55351;BME280;62194;49.480;10.986;2023-03-03T00:53:13;98438.44;;;0.66;71.43
55351;BME280;62194;49.480;10.986;2023-03-03T00:53:23;98443.50;;;0.68;71.99
55351;BME280;62194;49.480;10.986;2023-03-03T00:53:29;98430.44;;;0.56;71.50
55351;BME280;62194;49.480;10.986;2023-03-03T00:53:35;98440.84;;;0.68;71.48
55351;BME280;62194;49.480;10.986;2023-03-03T00:53:40;98399.09;;;0.41;71.86
55351;BME280;62194;49.480;10.986;2023-03-03T00:53:46;98435.50;;;0.63;71.87
55351;BME280;62194;49.480;10.986;2023-03-03T00:53:51;98438.16;;;0.68;71.79
55351;BME280;62194;49.480;10.986;2023-03-03T00:53:57;98432.78;;;0.68;71.53
55351;BME280;62194;49.480;10.986;2023-03-03T00:54:03;98416.22;;;0.51;71.69
55351;BME280;62194;49.480;10.986;2023-03-03T00:54:09;98437.34;;;0.67;71.84
55351;BME280;62194;49.480;10.986;2023-03-03T00:54:15;98414.63;;;0.50;71.63
55351;BME280;62194;49.480;10.986;2023-03-03T00:54:20;98406.84;;;0.48;71.52
55351;BME280;62194;49.480;10.986;2023-03-03T00:54:26;98419.97;;;0.55;71.55
55351;BME280;62194;49.480;10.986;2023-03-03T00:54:31;98383.88;;;0.27;71.29
55351;BME280;62194;49.480;10.986;2023-03-03T00:54:36;98373.41;;;0.25;71.52
55351;BME280;62194;49.480;10.986;2023-03-03T00:54:42;98443.81;;;0.66;71.70
55351;BME280;62194;49.480;10.986;2023-03-03T00:54:48;98374.44;;;0.29;71.55
55351;BME280;62194;49.480;10.986;2023-03-03T00:54:54;98395.34;;;0.37;71.71
55351;BME280;62194;49.480;10.986;2023-03-03T00:54:59;98424.28;;;0.56;72.09